sensor_id;sensor_type;location;lat;lon;timestamp;pressure;altitude;pressure_sealevel;temperature;humidity
75039;BME280;63609;49.992;14.512;2024-01-27T00:01:16;99188.16;;;1.92;60.08
75039;BME280;63609;49.992;14.512;2024-01-27T00:03:43;99180.97;;;1.77;60.90
75039;BME280;63609;49.992;14.512;2024-01-27T00:06:10;99185.00;;;1.65;61.73
75039;BME280;63609;49.992;14.512;2024-01-27T00:08:37;99174.94;;;1.54;62.39
75039;BME280;63609;49.992;14.512;2024-01-27T00:11:04;99176.88;;;1.51;62.09
75039;BME280;63609;49.992;14.512;2024-01-27T00:13:30;99177.38;;;1.38;63.11
75039;BME280;63609;49.992;14.512;2024-01-27T00:15:58;99187.47;;;1.27;63.50
75039;BME280;63609;49.992;14.512;2024-01-27T00:18:24;99188.53;;;1.23;63.75
75039;BME280;63609;49.992;14.512;2024-01-27T00:20:52;99189.94;;;1.11;64.38
75039;BME280;63609;49.992;14.512;2024-01-27T00:23:19;99186.88;;;1.42;62.93
75039;BME280;63609;49.992;14.512;2024-01-27T00:25:46;99182.03;;;1.32;62.65
75039;BME280;63609;49.992;14.512;2024-01-27T00:28:13;99178.66;;;1.28;62.75
75039;BME280;63609;49.992;14.512;2024-01-27T00:30:39;99174.72;;;1.40;61.96
75039;BME280;63609;49.992;14.512;2024-01-27T00:33:07;99177.34;;;1.40;62.46
75039;BME280;63609;49.992;14.512;2024-01-27T00:35:34;99169.69;;;1.13;62.05
75039;BME280;63609;49.992;14.512;2024-01-27T00:38:00;99177.72;;;1.51;61.26
75039;BME280;63609;49.992;14.512;2024-01-27T00:40:28;99185.31;;;1.17;61.67
75039;BME280;63609;49.992;14.512;2024-01-27T00:42:54;99183.41;;;1.20;61.32
75039;BME280;63609;49.992;14.512;2024-01-27T00:45:22;99185.88;;;1.45;60.86
75039;BME280;63609;49.992;14.512;2024-01-27T00:47:54;99189.00;;;1.33;60.78
75039;BME280;63609;49.992;14.512;2024-01-27T00:50:22;99192.38;;;1.36;59.64
75039;BME280;63609;49.992;14.512;2024-01-27T00:52:49;99199.66;;;1.30;60.11
75039;BME280;63609;49.992;14.512;2024-01-27T00:55:17;99201.19;;;1.35;59.30
75039;BME280;63609;49.992;14.512;2024-01-27T00:57:48;99199.91;;;1.46;59.58
75039;BME280;63609;49.992;14.512;2024-01-27T01:03:32;99198.91;;;1.48;60.07
75039;BME280;63609;49.992;14.512;2024-01-27T01:05:59;99214.44;;;1.12;60.61
75039;BME280;63609;49.992;14.512;2024-01-27T01:08:26;99206.44;;;1.15;60.70
75039;BME280;63609;49.992;14.512;2024-01-27T01:10:53;99212.31;;;1.00;62.02
75039;BME280;63609;49.992;14.512;2024-01-27T01:13:20;99199.66;;;1.09;62.39
75039;BME280;63609;49.992;14.512;2024-01-27T01:15:47;99220.25;;;0.98;62.47
75039;BME280;63609;49.992;14.512;2024-01-27T01:18:14;99224.66;;;0.98;63.17
75039;BME280;63609;49.992;14.512;2024-01-27T01:20:41;99218.88;;;0.90;63.60
75039;BME280;63609;49.992;14.512;2024-01-27T01:23:08;99229.38;;;1.11;63.02
75039;BME280;63609;49.992;14.512;2024-01-27T01:25:34;99228.59;;;0.88;63.29
75039;BME280;63609;49.992;14.512;2024-01-27T01:28:02;99225.84;;;0.91;63.17
75039;BME280;63609;49.992;14.512;2024-01-27T01:30:30;99234.91;;;1.05;63.27
75039;BME280;63609;49.992;14.512;2024-01-27T01:32:57;99237.22;;;0.91;63.71
75039;BME280;63609;49.992;14.512;2024-01-27T01:35:24;99240.31;;;1.01;63.74
75039;BME280;63609;49.992;14.512;2024-01-27T01:37:51;99254.03;;;1.71;61.32
75039;BME280;63609;49.992;14.512;2024-01-27T01:40:18;99252.97;;;0.91;63.63
75039;BME280;63609;49.992;14.512;2024-01-27T01:42:50;99253.63;;;1.18;62.30
75039;BME280;63609;49.992;14.512;2024-01-27T01:45:18;99257.56;;;1.08;62.58
75039;BME280;63609;49.992;14.512;2024-01-27T01:47:45;99258.31;;;1.11;62.75
75039;BME280;63609;49.992;14.512;2024-01-27T01:50:13;99263.63;;;1.30;62.31
75039;BME280;63609;49.992;14.512;2024-01-27T01:52:40;99272.59;;;1.48;60.69
75039;BME280;63609;49.992;14.512;2024-01-27T01:55:07;99265.81;;;0.99;62.86
75039;BME280;63609;49.992;14.512;2024-01-27T01:57:38;99273.78;;;1.41;60.78
75039;BME280;63609;49.992;14.512;2024-01-27T02:00:05;99267.13;;;1.31;60.76
75039;BME280;63609;49.992;14.512;2024-01-27T02:02:37;99267.13;;;1.31;60.83
75039;BME280;63609;49.992;14.512;2024-01-27T02:05:05;99272.84;;;0.98;62.13
75039;BME280;63609;49.992;14.512;2024-01-27T02:07:33;99265.94;;;1.18;60.94
75039;BME280;63609;49.992;14.512;2024-01-27T02:10:00;99280.06;;;1.37;61.22
75039;BME280;63609;49.992;14.512;2024-01-27T02:12:27;99278.28;;;1.16;61.20
75039;BME280;63609;49.992;14.512;2024-01-27T02:14:54;99279.03;;;1.19;61.60
75039;BME280;63609;49.992;14.512;2024-01-27T02:17:22;99288.16;;;1.10;61.90
75039;BME280;63609;49.992;14.512;2024-01-27T02:19:48;99286.13;;;0.95;62.62
75039;BME280;63609;49.992;14.512;2024-01-27T02:22:16;99283.22;;;1.03;63.26
75039;BME280;63609;49.992;14.512;2024-01-27T02:24:42;99284.16;;;1.00;63.55
75039;BME280;63609;49.992;14.512;2024-01-27T02:27:09;99281.91;;;0.91;63.94
75039;BME280;63609;49.992;14.512;2024-01-27T02:29:37;99275.13;;;1.07;63.44
75039;BME280;63609;49.992;14.512;2024-01-27T02:32:04;99285.06;;;0.99;64.80
75039;BME280;63609;49.992;14.512;2024-01-27T02:34:31;99284.69;;;0.65;65.45
75039;BME280;63609;49.992;14.512;2024-01-27T02:36:59;99295.53;;;1.01;64.41
75039;BME280;63609;49.992;14.512;2024-01-27T02:39:26;99289.19;;;0.85;65.12
75039;BME280;63609;49.992;14.512;2024-01-27T02:41:53;99281.16;;;0.88;64.06
75039;BME280;63609;49.992;14.512;2024-01-27T02:44:19;99286.56;;;0.85;64.20
75039;BME280;63609;49.992;14.512;2024-01-27T02:46:46;99292.34;;;0.93;64.41
75039;BME280;63609;49.992;14.512;2024-01-27T02:49:15;99295.44;;;1.04;63.81
75039;BME280;63609;49.992;14.512;2024-01-27T02:51:43;99291.75;;;1.08;63.91
75039;BME280;63609;49.992;14.512;2024-01-27T02:54:11;99298.13;;;0.80;64.80
75039;BME280;63609;49.992;14.512;2024-01-27T02:56:38;99306.63;;;1.09;64.67
75039;BME280;63609;49.992;14.512;2024-01-27T02:59:05;99301.16;;;0.92;64.71
75039;BME280;63609;49.992;14.512;2024-01-27T03:01:35;99309.47;;;0.81;64.84
75039;BME280;63609;49.992;14.512;2024-01-27T03:04:02;99311.44;;;0.76;65.65
75039;BME280;63609;49.992;14.512;2024-01-27T03:06:31;99323.19;;;0.66;66.34
75039;BME280;63609;49.992;14.512;2024-01-27T03:08:58;99324.69;;;0.49;66.20
75039;BME280;63609;49.992;14.512;2024-01-27T03:11:25;99329.97;;;0.49;65.57
75039;BME280;63609;49.992;14.512;2024-01-27T03:13:52;99318.53;;;0.50;65.65
75039;BME280;63609;49.992;14.512;2024-01-27T03:16:19;99332.78;;;0.67;65.04
75039;BME280;63609;49.992;14.512;2024-01-27T03:18:46;99340.06;;;0.60;66.16
75039;BME280;63609;49.992;14.512;2024-01-27T03:21:14;99335.78;;;0.58;66.13
75039;BME280;63609;49.992;14.512;2024-01-27T03:23:40;99333.22;;;0.56;64.98
75039;BME280;63609;49.992;14.512;2024-01-27T03:26:07;99328.25;;;0.94;64.81
75039;BME280;63609;49.992;14.512;2024-01-27T03:28:34;99331.44;;;0.57;65.12
75039;BME280;63609;49.992;14.512;2024-01-27T03:31:01;99335.75;;;0.34;64.16
75039;BME280;63609;49.992;14.512;2024-01-27T03:33:28;99340.47;;;0.49;64.40
75039;BME280;63609;49.992;14.512;2024-01-27T03:35:58;99326.97;;;0.35;63.51
75039;BME280;63609;49.992;14.512;2024-01-27T03:38:26;99351.66;;;0.55;62.98
75039;BME280;63609;49.992;14.512;2024-01-27T03:40:53;99356.22;;;0.49;63.29
75039;BME280;63609;49.992;14.512;2024-01-27T03:43:20;99352.84;;;0.69;62.28
75039;BME280;63609;49.992;14.512;2024-01-27T03:45:47;99365.91;;;0.72;62.14
75039;BME280;63609;49.992;14.512;2024-01-27T03:48:15;99366.31;;;1.07;60.37
75039;BME280;63609;49.992;14.512;2024-01-27T03:50:42;99380.66;;;0.98;59.83
75039;BME280;63609;49.992;14.512;2024-01-27T03:53:09;99378.13;;;1.19;59.22
75039;BME280;63609;49.992;14.512;2024-01-27T03:55:36;99386.09;;;0.94;59.97
75039;BME280;63609;49.992;14.512;2024-01-27T03:58:03;99375.41;;;0.52;59.81
75039;BME280;63609;49.992;14.512;2024-01-27T04:00:31;99380.88;;;0.70;58.91
75039;BME280;63609;49.992;14.512;2024-01-27T04:03:00;99387.88;;;0.70;58.79
75039;BME280;63609;49.992;14.512;2024-01-27T04:05:29;99388.44;;;0.55;57.57
75039;BME280;63609;49.992;14.512;2024-01-27T04:07:57;99393.13;;;0.70;57.55
75039;BME280;63609;49.992;14.512;2024-01-27T04:10:23;99397.56;;;0.68;56.63
75039;BME280;63609;49.992;14.512;2024-01-27T04:12:50;99390.84;;;0.84;55.84
75039;BME280;63609;49.992;14.512;2024-01-27T04:15:17;99394.16;;;0.42;57.01
75039;BME280;63609;49.992;14.512;2024-01-27T04:17:44;99395.19;;;0.62;57.17
75039;BME280;63609;49.992;14.512;2024-01-27T04:20:11;99401.72;;;0.75;57.31
75039;BME280;63609;49.992;14.512;2024-01-27T04:22:38;99399.09;;;0.75;56.71
75039;BME280;63609;49.992;14.512;2024-01-27T04:25:06;99403.81;;;0.65;56.46
75039;BME280;63609;49.992;14.512;2024-01-27T04:27:37;99412.03;;;0.56;56.99
75039;BME280;63609;49.992;14.512;2024-01-27T04:30:06;99409.69;;;0.48;57.54
75039;BME280;63609;49.992;14.512;2024-01-27T04:32:34;99412.50;;;0.44;58.20
75039;BME280;63609;49.992;14.512;2024-01-27T04:35:02;99404.09;;;0.09;60.14
75039;BME280;63609;49.992;14.512;2024-01-27T04:37:29;99406.22;;;0.23;61.28
75039;BME280;63609;49.992;14.512;2024-01-27T04:39:57;99405.63;;;0.15;62.20
75039;BME280;63609;49.992;14.512;2024-01-27T04:42:24;99397.69;;;-0.08;62.82
75039;BME280;63609;49.992;14.512;2024-01-27T04:44:51;99403.69;;;-0.05;63.96
75039;BME280;63609;49.992;14.512;2024-01-27T04:47:19;99408.88;;;-0.03;64.00
75039;BME280;63609;49.992;14.512;2024-01-27T04:49:46;99395.34;;;0.09;63.46
75039;BME280;63609;49.992;14.512;2024-01-27T04:52:13;99399.88;;;0.04;63.37
75039;BME280;63609;49.992;14.512;2024-01-27T04:54:39;99396.38;;;0.03;63.43
75039;BME280;63609;49.992;14.512;2024-01-27T04:57:07;99408.66;;;0.03;63.64
75039;BME280;63609;49.992;14.512;2024-01-27T04:59:34;99409.88;;;0.19;64.30
75039;BME280;63609;49.992;14.512;2024-01-27T05:02:00;99403.72;;;-0.06;64.61
75039;BME280;63609;49.992;14.512;2024-01-27T05:04:28;99412.25;;;0.00;64.10
75039;BME280;63609;49.992;14.512;2024-01-27T05:06:55;99412.53;;;-0.07;65.36
75039;BME280;63609;49.992;14.512;2024-01-27T05:09:22;99404.69;;;-0.09;64.72
75039;BME280;63609;49.992;14.512;2024-01-27T05:11:49;99413.66;;;0.10;63.70
75039;BME280;63609;49.992;14.512;2024-01-27T05:14:18;99418.47;;;-0.02;64.58
75039;BME280;63609;49.992;14.512;2024-01-27T05:16:46;99419.59;;;-0.09;64.60
75039;BME280;63609;49.992;14.512;2024-01-27T05:19:13;99424.34;;;-0.21;65.33
75039;BME280;63609;49.992;14.512;2024-01-27T05:21:42;99421.94;;;-0.27;66.20
75039;BME280;63609;49.992;14.512;2024-01-27T05:24:10;99424.47;;;0.01;64.50
75039;BME280;63609;49.992;14.512;2024-01-27T05:26:37;99423.34;;;-0.17;65.02
75039;BME280;63609;49.992;14.512;2024-01-27T05:29:05;99438.22;;;-0.17;65.12
75039;BME280;63609;49.992;14.512;2024-01-27T05:31:31;99431.63;;;-0.30;65.58
75039;BME280;63609;49.992;14.512;2024-01-27T05:33:58;99440.94;;;-0.20;65.64
75039;BME280;63609;49.992;14.512;2024-01-27T05:36:27;99428.59;;;-0.17;64.70
75039;BME280;63609;49.992;14.512;2024-01-27T05:38:55;99429.44;;;-0.16;64.20
75039;BME280;63609;49.992;14.512;2024-01-27T05:41:25;99451.50;;;-0.22;65.10
75039;BME280;63609;49.992;14.512;2024-01-27T05:43:52;99440.03;;;-0.19;64.53
75039;BME280;63609;49.992;14.512;2024-01-27T05:46:20;99444.22;;;-0.40;65.51
75039;BME280;63609;49.992;14.512;2024-01-27T05:48:47;99433.88;;;-0.18;64.08
75039;BME280;63609;49.992;14.512;2024-01-27T05:51:15;99432.56;;;-0.31;64.18
75039;BME280;63609;49.992;14.512;2024-01-27T05:53:43;99428.47;;;-0.14;63.53
75039;BME280;63609;49.992;14.512;2024-01-27T05:56:09;99441.22;;;-0.29;64.10
75039;BME280;63609;49.992;14.512;2024-01-27T05:58:36;99433.28;;;-0.26;63.52
75039;BME280;63609;49.992;14.512;2024-01-27T06:01:03;99433.31;;;-0.28;63.12
75039;BME280;63609;49.992;14.512;2024-01-27T06:03:30;99440.16;;;0.03;62.72
75039;BME280;63609;49.992;14.512;2024-01-27T06:05:59;99444.53;;;-0.23;61.79
75039;BME280;63609;49.992;14.512;2024-01-27T06:08:26;99439.94;;;-0.16;62.51
75039;BME280;63609;49.992;14.512;2024-01-27T06:10:53;99442.00;;;-0.26;62.27
75039;BME280;63609;49.992;14.512;2024-01-27T06:13:20;99445.47;;;-0.52;62.24
75039;BME280;63609;49.992;14.512;2024-01-27T06:15:46;99438.00;;;-0.37;62.70
75039;BME280;63609;49.992;14.512;2024-01-27T06:18:15;99445.03;;;-0.66;63.37
75039;BME280;63609;49.992;14.512;2024-01-27T06:20:42;99442.19;;;-0.32;62.50
75039;BME280;63609;49.992;14.512;2024-01-27T06:23:09;99445.50;;;-0.53;62.65
75039;BME280;63609;49.992;14.512;2024-01-27T06:25:36;99443.84;;;-0.29;62.08
75039;BME280;63609;49.992;14.512;2024-01-27T06:28:03;99449.59;;;-0.45;61.49
75039;BME280;63609;49.992;14.512;2024-01-27T06:30:30;99461.47;;;-0.33;61.96
75039;BME280;63609;49.992;14.512;2024-01-27T06:32:57;99469.47;;;-0.37;61.27
75039;BME280;63609;49.992;14.512;2024-01-27T06:35:24;99464.72;;;-0.25;61.45
75039;BME280;63609;49.992;14.512;2024-01-27T06:37:51;99469.91;;;-0.23;61.34
75039;BME280;63609;49.992;14.512;2024-01-27T06:40:19;99460.19;;;-0.48;61.29
75039;BME280;63609;49.992;14.512;2024-01-27T06:42:49;99473.31;;;-0.20;60.76
75039;BME280;63609;49.992;14.512;2024-01-27T06:45:16;99482.84;;;-0.17;61.38
75039;BME280;63609;49.992;14.512;2024-01-27T06:47:43;99475.94;;;-0.20;61.13
75039;BME280;63609;49.992;14.512;2024-01-27T06:50:11;99500.41;;;-0.47;60.72
75039;BME280;63609;49.992;14.512;2024-01-27T06:52:45;99493.09;;;-0.37;61.33
75039;BME280;63609;49.992;14.512;2024-01-27T06:55:26;99478.56;;;-0.20;60.13
75039;BME280;63609;49.992;14.512;2024-01-27T06:57:53;99501.97;;;-0.41;60.79
75039;BME280;63609;49.992;14.512;2024-01-27T07:00:20;99501.63;;;-0.31;61.17
75039;BME280;63609;49.992;14.512;2024-01-27T07:02:48;99516.94;;;-0.45;61.91
75039;BME280;63609;49.992;14.512;2024-01-27T07:05:16;99508.44;;;-0.24;60.61
75039;BME280;63609;49.992;14.512;2024-01-27T07:07:52;99496.22;;;-0.25;60.99
75039;BME280;63609;49.992;14.512;2024-01-27T07:10:24;99495.34;;;-0.25;61.05
75039;BME280;63609;49.992;14.512;2024-01-27T07:12:51;99505.22;;;-0.33;61.29
75039;BME280;63609;49.992;14.512;2024-01-27T07:15:34;99518.75;;;0.09;60.39
75039;BME280;63609;49.992;14.512;2024-01-27T07:18:09;99531.66;;;-0.39;61.76
75039;BME280;63609;49.992;14.512;2024-01-27T07:20:38;99544.88;;;-0.15;60.76
75039;BME280;63609;49.992;14.512;2024-01-27T07:23:11;99542.81;;;-0.33;61.13
75039;BME280;63609;49.992;14.512;2024-01-27T07:25:38;99528.94;;;0.18;59.90
75039;BME280;63609;49.992;14.512;2024-01-27T07:28:11;99539.28;;;0.23;59.94
75039;BME280;63609;49.992;14.512;2024-01-27T07:30:41;99544.06;;;-0.17;61.31
75039;BME280;63609;49.992;14.512;2024-01-27T07:33:08;99547.03;;;0.27;59.49
75039;BME280;63609;49.992;14.512;2024-01-27T07:35:35;99558.25;;;0.06;59.98
75039;BME280;63609;49.992;14.512;2024-01-27T07:38:03;99556.09;;;-0.09;61.50
75039;BME280;63609;49.992;14.512;2024-01-27T07:40:30;99575.06;;;-0.01;60.29
75039;BME280;63609;49.992;14.512;2024-01-27T07:42:57;99572.69;;;0.19;60.51
75039;BME280;63609;49.992;14.512;2024-01-27T07:45:24;99583.81;;;-0.01;60.22
75039;BME280;63609;49.992;14.512;2024-01-27T07:47:52;99580.34;;;0.25;60.54
75039;BME280;63609;49.992;14.512;2024-01-27T07:50:19;99591.38;;;0.10;60.75
75039;BME280;63609;49.992;14.512;2024-01-27T07:53:54;99593.25;;;0.05;61.75
75039;BME280;63609;49.992;14.512;2024-01-27T07:56:21;99603.91;;;0.00;60.93
75039;BME280;63609;49.992;14.512;2024-01-27T07:58:48;99592.31;;;0.07;61.84
75039;BME280;63609;49.992;14.512;2024-01-27T08:01:21;99593.78;;;0.16;60.75
75039;BME280;63609;49.992;14.512;2024-01-27T08:03:52;99595.47;;;-0.09;61.56
75039;BME280;63609;49.992;14.512;2024-01-27T08:06:28;99603.53;;;0.40;60.50
75039;BME280;63609;49.992;14.512;2024-01-27T08:08:56;99602.47;;;0.18;61.23
75039;BME280;63609;49.992;14.512;2024-01-27T08:11:23;99617.06;;;0.27;60.82
75039;BME280;63609;49.992;14.512;2024-01-27T08:13:53;99611.13;;;0.22;60.79
75039;BME280;63609;49.992;14.512;2024-01-27T08:16:32;99611.09;;;-0.06;61.32
75039;BME280;63609;49.992;14.512;2024-01-27T08:18:59;99609.06;;;0.03;61.88
75039;BME280;63609;49.992;14.512;2024-01-27T08:21:33;99597.84;;;-0.02;61.39
75039;BME280;63609;49.992;14.512;2024-01-27T08:24:09;99608.19;;;0.03;62.19
75039;BME280;63609;49.992;14.512;2024-01-27T08:26:37;99610.47;;;0.15;61.71
75039;BME280;63609;49.992;14.512;2024-01-27T08:29:04;99612.78;;;-0.04;61.71
75039;BME280;63609;49.992;14.512;2024-01-27T08:31:37;99618.94;;;-0.05;61.11
75039;BME280;63609;49.992;14.512;2024-01-27T08:34:13;99618.13;;;-0.07;61.82
75039;BME280;63609;49.992;14.512;2024-01-27T08:36:43;99614.25;;;0.33;60.57
75039;BME280;63609;49.992;14.512;2024-01-27T08:39:13;99603.34;;;0.18;60.10
75039;BME280;63609;49.992;14.512;2024-01-27T08:41:42;99621.31;;;0.31;59.95
75039;BME280;63609;49.992;14.512;2024-01-27T08:44:09;99617.63;;;0.38;60.84
75039;BME280;63609;49.992;14.512;2024-01-27T08:46:37;99616.59;;;0.42;60.78
75039;BME280;63609;49.992;14.512;2024-01-27T08:49:05;99611.47;;;0.37;60.55
75039;BME280;63609;49.992;14.512;2024-01-27T08:51:43;99623.38;;;0.21;60.73
75039;BME280;63609;49.992;14.512;2024-01-27T08:54:21;99609.81;;;0.35;59.63
75039;BME280;63609;49.992;14.512;2024-01-27T08:56:56;99626.16;;;0.44;59.55
75039;BME280;63609;49.992;14.512;2024-01-27T08:59:36;99594.84;;;0.38;60.01
75039;BME280;63609;49.992;14.512;2024-01-27T09:02:32;99630.28;;;0.52;60.14
75039;BME280;63609;49.992;14.512;2024-01-27T09:04:59;99622.00;;;0.64;59.18
75039;BME280;63609;49.992;14.512;2024-01-27T09:07:38;99637.22;;;0.80;59.28
75039;BME280;63609;49.992;14.512;2024-01-27T09:10:05;99628.56;;;0.77;59.55
75039;BME280;63609;49.992;14.512;2024-01-27T09:12:33;99645.03;;;1.08;58.09
75039;BME280;63609;49.992;14.512;2024-01-27T09:15:01;99642.50;;;1.05;57.78
75039;BME280;63609;49.992;14.512;2024-01-27T09:17:38;99643.81;;;0.92;58.67
75039;BME280;63609;49.992;14.512;2024-01-27T09:20:19;99642.91;;;0.93;58.05
75039;BME280;63609;49.992;14.512;2024-01-27T09:23:12;99647.44;;;1.15;58.04
75039;BME280;63609;49.992;14.512;2024-01-27T09:25:38;99652.25;;;1.02;59.20
75039;BME280;63609;49.992;14.512;2024-01-27T09:28:14;99627.41;;;0.59;58.63
75039;BME280;63609;49.992;14.512;2024-01-27T09:30:53;99661.41;;;0.90;58.43
75039;BME280;63609;49.992;14.512;2024-01-27T09:33:21;99663.28;;;0.87;58.78
75039;BME280;63609;49.992;14.512;2024-01-27T09:35:51;99662.63;;;1.06;57.77
75039;BME280;63609;49.992;14.512;2024-01-27T09:38:28;99668.59;;;1.11;57.57
75039;BME280;63609;49.992;14.512;2024-01-27T09:41:03;99667.63;;;1.14;57.83
75039;BME280;63609;49.992;14.512;2024-01-27T09:43:35;99676.72;;;1.55;57.10
75039;BME280;63609;49.992;14.512;2024-01-27T09:46:15;99664.19;;;1.62;56.38
75039;BME280;63609;49.992;14.512;2024-01-27T09:48:45;99674.84;;;1.32;56.84
75039;BME280;63609;49.992;14.512;2024-01-27T09:51:14;99681.03;;;1.31;57.36
75039;BME280;63609;49.992;14.512;2024-01-27T09:53:52;99677.56;;;1.56;57.09
75039;BME280;63609;49.992;14.512;2024-01-27T09:56:26;99674.06;;;1.55;56.72
75039;BME280;63609;49.992;14.512;2024-01-27T09:58:53;99673.97;;;1.58;56.91
75039;BME280;63609;49.992;14.512;2024-01-27T10:01:29;99685.81;;;1.47;56.66
75039;BME280;63609;49.992;14.512;2024-01-27T10:04:08;99675.38;;;1.68;56.48
75039;BME280;63609;49.992;14.512;2024-01-27T10:06:35;99678.78;;;1.94;56.31
75039;BME280;63609;49.992;14.512;2024-01-27T10:09:03;99688.03;;;1.57;56.19
75039;BME280;63609;49.992;14.512;2024-01-27T10:11:46;99670.16;;;1.90;55.13
75039;BME280;63609;49.992;14.512;2024-01-27T10:14:14;99677.13;;;1.91;54.94
75039;BME280;63609;49.992;14.512;2024-01-27T10:16:42;99688.66;;;1.64;55.54
75039;BME280;63609;49.992;14.512;2024-01-27T10:19:20;99676.91;;;1.74;55.88
75039;BME280;63609;49.992;14.512;2024-01-27T10:21:59;99672.34;;;1.79;56.19
75039;BME280;63609;49.992;14.512;2024-01-27T10:24:39;99667.19;;;2.65;54.69
75039;BME280;63609;49.992;14.512;2024-01-27T10:27:06;99674.06;;;2.03;56.07
75039;BME280;63609;49.992;14.512;2024-01-27T10:29:33;99660.72;;;2.52;55.02
75039;BME280;63609;49.992;14.512;2024-01-27T10:32:08;99665.34;;;1.78;55.45
75039;BME280;63609;49.992;14.512;2024-01-27T10:34:46;99661.94;;;1.98;55.01
75039;BME280;63609;49.992;14.512;2024-01-27T10:37:43;99667.91;;;1.80;55.28
75039;BME280;63609;49.992;14.512;2024-01-27T10:40:07;99669.22;;;2.58;53.81
75039;BME280;63609;49.992;14.512;2024-01-27T10:42:41;99667.38;;;2.60;54.48
75039;BME280;63609;49.992;14.512;2024-01-27T10:45:09;99661.34;;;2.36;55.04
75039;BME280;63609;49.992;14.512;2024-01-27T10:47:48;99659.63;;;2.35;54.38
75039;BME280;63609;49.992;14.512;2024-01-27T10:50:21;99646.53;;;2.76;54.05
75039;BME280;63609;49.992;14.512;2024-01-27T10:52:57;99661.63;;;2.29;54.17
75039;BME280;63609;49.992;14.512;2024-01-27T10:55:53;99657.59;;;2.42;54.27
75039;BME280;63609;49.992;14.512;2024-01-27T10:58:26;99654.09;;;2.42;55.16
75039;BME280;63609;49.992;14.512;2024-01-27T11:01:10;99647.78;;;2.67;54.10
75039;BME280;63609;49.992;14.512;2024-01-27T11:03:43;99644.16;;;2.48;53.85
75039;BME280;63609;49.992;14.512;2024-01-27T11:06:16;99637.63;;;2.36;53.69
75039;BME280;63609;49.992;14.512;2024-01-27T11:08:45;99650.03;;;2.55;54.44
75039;BME280;63609;49.992;14.512;2024-01-27T11:11:20;99664.56;;;2.65;53.80
75039;BME280;63609;49.992;14.512;2024-01-27T11:14:01;99674.47;;;3.02;53.82
75039;BME280;63609;49.992;14.512;2024-01-27T11:16:37;99651.81;;;2.76;53.82
75039;BME280;63609;49.992;14.512;2024-01-27T11:19:20;99657.00;;;3.20;52.82
75039;BME280;63609;49.992;14.512;2024-01-27T11:22:06;99661.25;;;2.82;53.74
75039;BME280;63609;49.992;14.512;2024-01-27T11:24:34;99646.44;;;2.57;53.52
75039;BME280;63609;49.992;14.512;2024-01-27T11:27:34;99634.13;;;3.00;53.95
75039;BME280;63609;49.992;14.512;2024-01-27T11:30:08;99648.38;;;2.74;53.89
75039;BME280;63609;49.992;14.512;2024-01-27T11:32:54;99660.28;;;3.45;52.35
75039;BME280;63609;49.992;14.512;2024-01-27T11:35:21;99662.97;;;4.03;50.80
75039;BME280;63609;49.992;14.512;2024-01-27T11:37:49;99671.72;;;3.85;52.16
75039;BME280;63609;49.992;14.512;2024-01-27T11:40:25;99677.47;;;3.74;51.54
75039;BME280;63609;49.992;14.512;2024-01-27T11:43:04;99676.81;;;3.89;51.80
75039;BME280;63609;49.992;14.512;2024-01-27T11:46:00;99646.63;;;3.36;52.84
75039;BME280;63609;49.992;14.512;2024-01-27T11:48:46;99657.44;;;3.29;52.90
75039;BME280;63609;49.992;14.512;2024-01-27T11:51:30;99647.84;;;3.68;52.29
75039;BME280;63609;49.992;14.512;2024-01-27T11:54:03;99637.59;;;3.60;52.07
75039;BME280;63609;49.992;14.512;2024-01-27T11:56:35;99657.59;;;4.23;51.20
75039;BME280;63609;49.992;14.512;2024-01-27T11:59:02;99657.97;;;4.35;49.84
75039;BME280;63609;49.992;14.512;2024-01-27T12:01:29;99655.34;;;3.77;50.89
75039;BME280;63609;49.992;14.512;2024-01-27T12:03:56;99655.06;;;4.03;51.51
75039;BME280;63609;49.992;14.512;2024-01-27T12:06:23;99648.28;;;3.77;52.47
75039;BME280;63609;49.992;14.512;2024-01-27T12:08:53;99650.91;;;4.71;50.51
75039;BME280;63609;49.992;14.512;2024-01-27T12:11:20;99645.09;;;3.89;51.21
75039;BME280;63609;49.992;14.512;2024-01-27T12:13:52;99644.69;;;4.17;50.45
75039;BME280;63609;49.992;14.512;2024-01-27T12:16:21;99649.25;;;4.33;50.19
75039;BME280;63609;49.992;14.512;2024-01-27T12:18:52;99638.41;;;4.56;50.21
75039;BME280;63609;49.992;14.512;2024-01-27T12:21:20;99644.59;;;4.38;50.35
75039;BME280;63609;49.992;14.512;2024-01-27T12:23:55;99636.28;;;4.99;49.23
75039;BME280;63609;49.992;14.512;2024-01-27T12:26:24;99642.59;;;4.60;49.61
75039;BME280;63609;49.992;14.512;2024-01-27T12:28:52;99636.13;;;5.02;49.29
75039;BME280;63609;49.992;14.512;2024-01-27T12:31:22;99644.03;;;4.67;49.04
75039;BME280;63609;49.992;14.512;2024-01-27T12:33:53;99634.25;;;4.69;49.20
75039;BME280;63609;49.992;14.512;2024-01-27T12:36:22;99643.03;;;4.34;49.36
75039;BME280;63609;49.992;14.512;2024-01-27T12:41:27;99648.44;;;4.49;49.52
75039;BME280;63609;49.992;14.512;2024-01-27T12:43:55;99650.75;;;4.92;48.86
75039;BME280;63609;49.992;14.512;2024-01-27T12:46:22;99647.63;;;4.30;49.62
75039;BME280;63609;49.992;14.512;2024-01-27T12:48:49;99651.22;;;4.46;49.97
75039;BME280;63609;49.992;14.512;2024-01-27T12:51:16;99657.63;;;4.96;48.24
75039;BME280;63609;49.992;14.512;2024-01-27T12:53:43;99652.16;;;5.16;48.67
75039;BME280;63609;49.992;14.512;2024-01-27T12:56:12;99635.25;;;4.67;48.58
75039;BME280;63609;49.992;14.512;2024-01-27T12:58:39;99631.75;;;4.66;48.33
75039;BME280;63609;49.992;14.512;2024-01-27T13:01:08;99635.72;;;4.92;48.13
75039;BME280;63609;49.992;14.512;2024-01-27T13:03:35;99641.78;;;4.77;48.33
75039;BME280;63609;49.992;14.512;2024-01-27T13:06:02;99629.34;;;4.79;47.97
75039;BME280;63609;49.992;14.512;2024-01-27T13:08:29;99635.03;;;5.56;46.46
75039;BME280;63609;49.992;14.512;2024-01-27T13:10:57;99643.41;;;5.48;47.46
75039;BME280;63609;49.992;14.512;2024-01-27T13:13:23;99641.16;;;5.41;47.03
75039;BME280;63609;49.992;14.512;2024-01-27T13:15:50;99644.75;;;5.23;47.10
75039;BME280;63609;49.992;14.512;2024-01-27T13:18:17;99656.16;;;6.24;45.99